sensor_id;sensor_type;location;lat;lon;timestamp;temperature;humidity
78461;SHT31;67755;51.986;5.696;2024-02-15T00:01:52;15.1;76.2
78461;SHT31;67755;51.986;5.696;2024-02-15T00:04:22;15.1;76.1
78461;SHT31;67755;51.986;5.696;2024-02-15T00:06:51;15.1;76.1
78461;SHT31;67755;51.986;5.696;2024-02-15T00:09:21;15.1;76.1
78461;SHT31;67755;51.986;5.696;2024-02-15T00:11:50;15.1;76.0
78461;SHT31;67755;51.986;5.696;2024-02-15T00:14:20;15.1;76.0
78461;SHT31;67755;51.986;5.696;2024-02-15T00:16:48;15.1;75.8
78461;SHT31;67755;51.986;5.696;2024-02-15T00:19:17;15.1;75.9
78461;SHT31;67755;51.986;5.696;2024-02-15T00:21:46;15.1;75.8
78461;SHT31;67755;51.986;5.696;2024-02-15T00:24:17;15.2;75.7
78461;SHT31;67755;51.986;5.696;2024-02-15T00:26:45;15.2;75.7
78461;SHT31;67755;51.986;5.696;2024-02-15T00:29:14;15.2;75.6
78461;SHT31;67755;51.986;5.696;2024-02-15T00:31:42;15.2;75.7
78461;SHT31;67755;51.986;5.696;2024-02-15T00:34:13;15.2;75.7
78461;SHT31;67755;51.986;5.696;2024-02-15T00:36:43;15.2;75.6
78461;SHT31;67755;51.986;5.696;2024-02-15T00:39:12;15.2;75.6
78461;SHT31;67755;51.986;5.696;2024-02-15T00:41:44;15.2;75.6
78461;SHT31;67755;51.986;5.696;2024-02-15T00:44:13;15.2;75.6
78461;SHT31;67755;51.986;5.696;2024-02-15T00:46:43;15.2;75.6
78461;SHT31;67755;51.986;5.696;2024-02-15T00:49:15;15.2;75.7
78461;SHT31;67755;51.986;5.696;2024-02-15T00:51:47;15.2;75.7
78461;SHT31;67755;51.986;5.696;2024-02-15T00:54:15;15.2;75.6
78461;SHT31;67755;51.986;5.696;2024-02-15T00:56:44;15.2;75.7
78461;SHT31;67755;51.986;5.696;2024-02-15T00:59:12;15.2;75.8
78461;SHT31;67755;51.986;5.696;2024-02-15T01:01:41;15.2;75.7
78461;SHT31;67755;51.986;5.696;2024-02-15T01:04:09;15.2;75.6
78461;SHT31;67755;51.986;5.696;2024-02-15T01:06:40;15.2;75.6
78461;SHT31;67755;51.986;5.696;2024-02-15T01:09:08;15.2;75.6
78461;SHT31;67755;51.986;5.696;2024-02-15T01:11:39;15.2;75.5
78461;SHT31;67755;51.986;5.696;2024-02-15T01:14:09;15.2;75.6
78461;SHT31;67755;51.986;5.696;2024-02-15T01:16:38;15.2;75.6
78461;SHT31;67755;51.986;5.696;2024-02-15T01:19:07;15.3;75.5
78461;SHT31;67755;51.986;5.696;2024-02-15T01:21:35;15.3;75.5
78461;SHT31;67755;51.986;5.696;2024-02-15T01:24:05;15.3;75.4
78461;SHT31;67755;51.986;5.696;2024-02-15T01:26:34;15.3;75.3
78461;SHT31;67755;51.986;5.696;2024-02-15T01:29:02;15.3;75.3
78461;SHT31;67755;51.986;5.696;2024-02-15T01:31:31;15.3;75.3
78461;SHT31;67755;51.986;5.696;2024-02-15T01:33:59;15.3;75.2
78461;SHT31;67755;51.986;5.696;2024-02-15T01:36:31;15.3;75.2
78461;SHT31;67755;51.986;5.696;2024-02-15T01:39:01;15.3;75.1
78461;SHT31;67755;51.986;5.696;2024-02-15T01:41:30;15.3;75.1
78461;SHT31;67755;51.986;5.696;2024-02-15T01:43:58;15.3;75.2
78461;SHT31;67755;51.986;5.696;2024-02-15T01:46:28;15.3;75.1
78461;SHT31;67755;51.986;5.696;2024-02-15T01:49:00;15.3;75.2
78461;SHT31;67755;51.986;5.696;2024-02-15T01:51:29;15.3;75.2
78461;SHT31;67755;51.986;5.696;2024-02-15T01:54:01;15.3;75.1
78461;SHT31;67755;51.986;5.696;2024-02-15T01:56:33;15.3;75.2
78461;SHT31;67755;51.986;5.696;2024-02-15T01:59:04;15.3;75.3
78461;SHT31;67755;51.986;5.696;2024-02-15T02:01:34;15.3;75.3
78461;SHT31;67755;51.986;5.696;2024-02-15T02:04:05;15.3;75.3
78461;SHT31;67755;51.986;5.696;2024-02-15T02:06:37;15.3;75.3
78461;SHT31;67755;51.986;5.696;2024-02-15T02:09:06;15.3;75.3
78461;SHT31;67755;51.986;5.696;2024-02-15T02:11:39;15.3;75.3
78461;SHT31;67755;51.986;5.696;2024-02-15T02:14:08;15.3;75.2
78461;SHT31;67755;51.986;5.696;2024-02-15T02:16:40;15.3;75.1
78461;SHT31;67755;51.986;5.696;2024-02-15T02:19:08;15.3;75.0
78461;SHT31;67755;51.986;5.696;2024-02-15T02:21:37;15.3;74.9
78461;SHT31;67755;51.986;5.696;2024-02-15T02:24:15;15.3;74.9
78461;SHT31;67755;51.986;5.696;2024-02-15T02:26:47;15.3;74.9
78461;SHT31;67755;51.986;5.696;2024-02-15T02:29:16;15.3;74.8
78461;SHT31;67755;51.986;5.696;2024-02-15T02:31:45;15.3;74.7
78461;SHT31;67755;51.986;5.696;2024-02-15T02:34:15;15.3;74.7
78461;SHT31;67755;51.986;5.696;2024-02-15T02:36:46;15.3;74.7
78461;SHT31;67755;51.986;5.696;2024-02-15T02:39:16;15.3;74.6
78461;SHT31;67755;51.986;5.696;2024-02-15T02:41:45;15.3;74.5
78461;SHT31;67755;51.986;5.696;2024-02-15T02:44:13;15.3;74.6
78461;SHT31;67755;51.986;5.696;2024-02-15T02:46:43;15.3;74.3
78461;SHT31;67755;51.986;5.696;2024-02-15T02:49:14;15.3;74.2
78461;SHT31;67755;51.986;5.696;2024-02-15T02:51:43;15.3;74.1
78461;SHT31;67755;51.986;5.696;2024-02-15T02:54:11;15.3;74.1
78461;SHT31;67755;51.986;5.696;2024-02-15T02:56:41;15.3;74.1
78461;SHT31;67755;51.986;5.696;2024-02-15T02:59:11;15.3;74.0
78461;SHT31;67755;51.986;5.696;2024-02-15T03:01:44;15.3;74.1
78461;SHT31;67755;51.986;5.696;2024-02-15T03:04:14;15.3;74.2
78461;SHT31;67755;51.986;5.696;2024-02-15T03:06:43;15.3;74.2
78461;SHT31;67755;51.986;5.696;2024-02-15T03:09:12;15.3;74.0
78461;SHT31;67755;51.986;5.696;2024-02-15T03:11:41;15.3;74.2
78461;SHT31;67755;51.986;5.696;2024-02-15T03:14:13;15.3;74.1
78461;SHT31;67755;51.986;5.696;2024-02-15T03:16:43;15.3;74.1
78461;SHT31;67755;51.986;5.696;2024-02-15T03:19:12;15.3;74.0
78461;SHT31;67755;51.986;5.696;2024-02-15T03:21:41;15.3;74.0
78461;SHT31;67755;51.986;5.696;2024-02-15T03:24:14;15.3;74.0
78461;SHT31;67755;51.986;5.696;2024-02-15T03:26:43;15.2;74.0
78461;SHT31;67755;51.986;5.696;2024-02-15T03:29:11;15.2;74.0
78461;SHT31;67755;51.986;5.696;2024-02-15T03:31:42;15.2;73.9
78461;SHT31;67755;51.986;5.696;2024-02-15T03:34:11;15.2;73.9
78461;SHT31;67755;51.986;5.696;2024-02-15T03:36:42;15.2;73.9
78461;SHT31;67755;51.986;5.696;2024-02-15T03:39:10;15.2;73.9
78461;SHT31;67755;51.986;5.696;2024-02-15T03:41:38;15.2;74.0
78461;SHT31;67755;51.986;5.696;2024-02-15T03:44:07;15.2;74.0
78461;SHT31;67755;51.986;5.696;2024-02-15T03:46:36;15.2;74.0
78461;SHT31;67755;51.986;5.696;2024-02-15T03:49:04;15.2;73.9
78461;SHT31;67755;51.986;5.696;2024-02-15T03:51:34;15.2;73.7
78461;SHT31;67755;51.986;5.696;2024-02-15T03:54:03;15.2;73.7
78461;SHT31;67755;51.986;5.696;2024-02-15T03:56:31;15.2;73.8
78461;SHT31;67755;51.986;5.696;2024-02-15T03:59:00;15.2;73.9
78461;SHT31;67755;51.986;5.696;2024-02-15T04:01:31;15.2;73.9
78461;SHT31;67755;51.986;5.696;2024-02-15T04:04:00;15.2;73.8
78461;SHT31;67755;51.986;5.696;2024-02-15T04:06:29;15.2;73.7
78461;SHT31;67755;51.986;5.696;2024-02-15T04:09:00;15.1;73.7
78461;SHT31;67755;51.986;5.696;2024-02-15T04:11:28;15.1;73.7
78461;SHT31;67755;51.986;5.696;2024-02-15T04:13:58;15.1;73.6
78461;SHT31;67755;51.986;5.696;2024-02-15T04:16:27;15.1;73.9
78461;SHT31;67755;51.986;5.696;2024-02-15T04:18:56;15.1;73.9
78461;SHT31;67755;51.986;5.696;2024-02-15T04:21:25;15.1;73.9
78461;SHT31;67755;51.986;5.696;2024-02-15T04:23:54;15.1;74.2
78461;SHT31;67755;51.986;5.696;2024-02-15T04:26:23;15.1;74.2
78461;SHT31;67755;51.986;5.696;2024-02-15T04:28:53;15.1;74.3
78461;SHT31;67755;51.986;5.696;2024-02-15T04:31:23;15.1;74.2
78461;SHT31;67755;51.986;5.696;2024-02-15T04:33:53;15.1;74.1
78461;SHT31;67755;51.986;5.696;2024-02-15T04:36:22;15.1;74.0
78461;SHT31;67755;51.986;5.696;2024-02-15T04:38:52;15.0;74.3
78461;SHT31;67755;51.986;5.696;2024-02-15T04:41:21;15.0;74.3
78461;SHT31;67755;51.986;5.696;2024-02-15T04:43:50;15.0;74.3
78461;SHT31;67755;51.986;5.696;2024-02-15T04:46:19;15.0;74.4
78461;SHT31;67755;51.986;5.696;2024-02-15T04:48:49;15.0;74.5
78461;SHT31;67755;51.986;5.696;2024-02-15T04:51:17;15.0;74.6
78461;SHT31;67755;51.986;5.696;2024-02-15T04:53:46;15.0;74.4
78461;SHT31;67755;51.986;5.696;2024-02-15T04:56:15;15.0;74.5
78461;SHT31;67755;51.986;5.696;2024-02-15T04:58:44;15.0;74.6
78461;SHT31;67755;51.986;5.696;2024-02-15T05:01:15;15.0;74.6
78461;SHT31;67755;51.986;5.696;2024-02-15T05:03:44;15.0;74.7
78461;SHT31;67755;51.986;5.696;2024-02-15T05:06:13;15.0;74.9
78461;SHT31;67755;51.986;5.696;2024-02-15T05:08:41;15.0;74.9
78461;SHT31;67755;51.986;5.696;2024-02-15T05:11:11;15.0;75.0
78461;SHT31;67755;51.986;5.696;2024-02-15T05:13:43;15.0;75.1
78461;SHT31;67755;51.986;5.696;2024-02-15T05:16:12;15.0;75.1
78461;SHT31;67755;51.986;5.696;2024-02-15T05:18:41;15.0;74.9
78461;SHT31;67755;51.986;5.696;2024-02-15T05:21:10;15.0;75.0
78461;SHT31;67755;51.986;5.696;2024-02-15T05:23:39;15.0;75.0
78461;SHT31;67755;51.986;5.696;2024-02-15T05:26:08;15.1;75.0
78461;SHT31;67755;51.986;5.696;2024-02-15T05:28:37;15.1;75.0
78461;SHT31;67755;51.986;5.696;2024-02-15T05:31:13;15.1;75.1
78461;SHT31;67755;51.986;5.696;2024-02-15T05:33:48;15.1;75.2
78461;SHT31;67755;51.986;5.696;2024-02-15T05:36:18;15.1;75.3
78461;SHT31;67755;51.986;5.696;2024-02-15T05:38:49;15.1;75.4
78461;SHT31;67755;51.986;5.696;2024-02-15T05:41:20;15.1;75.3
78461;SHT31;67755;51.986;5.696;2024-02-15T05:43:48;15.1;75.2
78461;SHT31;67755;51.986;5.696;2024-02-15T05:46:19;15.1;75.3
78461;SHT31;67755;51.986;5.696;2024-02-15T05:48:49;15.1;75.3
78461;SHT31;67755;51.986;5.696;2024-02-15T05:51:19;15.1;75.3
78461;SHT31;67755;51.986;5.696;2024-02-15T05:53:49;15.1;75.3
78461;SHT31;67755;51.986;5.696;2024-02-15T05:56:19;15.1;75.2
78461;SHT31;67755;51.986;5.696;2024-02-15T05:58:48;15.1;75.3
78461;SHT31;67755;51.986;5.696;2024-02-15T06:01:16;15.1;75.3
78461;SHT31;67755;51.986;5.696;2024-02-15T06:03:46;15.1;75.3
78461;SHT31;67755;51.986;5.696;2024-02-15T06:06:14;15.1;75.2
78461;SHT31;67755;51.986;5.696;2024-02-15T06:08:47;15.1;75.3
78461;SHT31;67755;51.986;5.696;2024-02-15T06:11:19;15.1;75.3
78461;SHT31;67755;51.986;5.696;2024-02-15T06:13:48;15.0;75.4
78461;SHT31;67755;51.986;5.696;2024-02-15T06:16:17;15.0;75.4
78461;SHT31;67755;51.986;5.696;2024-02-15T06:18:46;15.0;75.3
78461;SHT31;67755;51.986;5.696;2024-02-15T06:21:17;15.0;75.4
78461;SHT31;67755;51.986;5.696;2024-02-15T06:23:47;15.1;75.3
78461;SHT31;67755;51.986;5.696;2024-02-15T06:26:17;15.1;75.4
78461;SHT31;67755;51.986;5.696;2024-02-15T06:28:47;15.1;75.4
78461;SHT31;67755;51.986;5.696;2024-02-15T06:31:34;15.1;75.4
78461;SHT31;67755;51.986;5.696;2024-02-15T06:34:18;15.1;75.4
78461;SHT31;67755;51.986;5.696;2024-02-15T06:37:03;15.0;75.5
78461;SHT31;67755;51.986;5.696;2024-02-15T06:39:50;15.0;75.5
78461;SHT31;67755;51.986;5.696;2024-02-15T06:42:18;15.0;75.5
78461;SHT31;67755;51.986;5.696;2024-02-15T06:44:48;15.1;75.4
78461;SHT31;67755;51.986;5.696;2024-02-15T06:47:16;15.0;75.5
78461;SHT31;67755;51.986;5.696;2024-02-15T06:49:46;15.0;75.4
78461;SHT31;67755;51.986;5.696;2024-02-15T06:52:17;15.0;75.5
78461;SHT31;67755;51.986;5.696;2024-02-15T06:54:48;15.0;75.5
78461;SHT31;67755;51.986;5.696;2024-02-15T06:57:17;15.0;75.5
78461;SHT31;67755;51.986;5.696;2024-02-15T06:59:48;15.1;75.5
78461;SHT31;67755;51.986;5.696;2024-02-15T07:02:19;15.1;75.5
78461;SHT31;67755;51.986;5.696;2024-02-15T07:04:49;15.1;75.5
78461;SHT31;67755;51.986;5.696;2024-02-15T07:07:18;15.1;75.4
78461;SHT31;67755;51.986;5.696;2024-02-15T07:09:48;15.1;75.3
78461;SHT31;67755;51.986;5.696;2024-02-15T07:12:19;15.1;75.5
78461;SHT31;67755;51.986;5.696;2024-02-15T07:14:48;15.1;75.6
78461;SHT31;67755;51.986;5.696;2024-02-15T07:17:18;15.1;75.6
78461;SHT31;67755;51.986;5.696;2024-02-15T07:19:47;15.1;75.6
78461;SHT31;67755;51.986;5.696;2024-02-15T07:22:17;15.1;75.6
78461;SHT31;67755;51.986;5.696;2024-02-15T07:24:46;15.1;75.6
78461;SHT31;67755;51.986;5.696;2024-02-15T07:27:15;15.1;75.6
78461;SHT31;67755;51.986;5.696;2024-02-15T07:29:44;15.1;75.7
78461;SHT31;67755;51.986;5.696;2024-02-15T07:32:13;15.1;75.7
78461;SHT31;67755;51.986;5.696;2024-02-15T07:34:43;15.1;75.7
78461;SHT31;67755;51.986;5.696;2024-02-15T07:37:15;15.1;75.7
78461;SHT31;67755;51.986;5.696;2024-02-15T07:39:44;15.1;75.6
78461;SHT31;67755;51.986;5.696;2024-02-15T07:42:13;15.1;75.6
78461;SHT31;67755;51.986;5.696;2024-02-15T07:44:42;15.1;75.6
78461;SHT31;67755;51.986;5.696;2024-02-15T07:47:10;15.2;75.7
78461;SHT31;67755;51.986;5.696;2024-02-15T07:49:39;15.2;75.7
78461;SHT31;67755;51.986;5.696;2024-02-15T07:52:07;15.2;75.5
78461;SHT31;67755;51.986;5.696;2024-02-15T07:54:36;15.2;75.6
78461;SHT31;67755;51.986;5.696;2024-02-15T07:57:05;15.2;75.6
78461;SHT31;67755;51.986;5.696;2024-02-15T07:59:35;15.2;75.6
78461;SHT31;67755;51.986;5.696;2024-02-15T08:02:05;15.2;75.6
78461;SHT31;67755;51.986;5.696;2024-02-15T08:04:34;15.2;75.6
78461;SHT31;67755;51.986;5.696;2024-02-15T08:07:07;15.2;75.7
78461;SHT31;67755;51.986;5.696;2024-02-15T08:09:37;15.2;75.8
78461;SHT31;67755;51.986;5.696;2024-02-15T08:12:06;15.3;75.6
78461;SHT31;67755;51.986;5.696;2024-02-15T08:14:34;15.3;75.6
78461;SHT31;67755;51.986;5.696;2024-02-15T08:17:03;15.3;75.6
78461;SHT31;67755;51.986;5.696;2024-02-15T08:19:34;15.3;75.5
78461;SHT31;67755;51.986;5.696;2024-02-15T08:22:06;15.3;75.4
78461;SHT31;67755;51.986;5.696;2024-02-15T08:24:34;15.3;75.5
78461;SHT31;67755;51.986;5.696;2024-02-15T08:27:03;15.3;75.7
78461;SHT31;67755;51.986;5.696;2024-02-15T08:29:31;15.3;75.6
78461;SHT31;67755;51.986;5.696;2024-02-15T08:32:01;15.3;75.7
78461;SHT31;67755;51.986;5.696;2024-02-15T08:34:32;15.3;75.8
78461;SHT31;67755;51.986;5.696;2024-02-15T08:37:01;15.3;75.6
78461;SHT31;67755;51.986;5.696;2024-02-15T08:39:29;15.3;75.7
78461;SHT31;67755;51.986;5.696;2024-02-15T08:41:58;15.3;75.7
78461;SHT31;67755;51.986;5.696;2024-02-15T08:44:26;15.3;75.6
78461;SHT31;67755;51.986;5.696;2024-02-15T08:46:55;15.3;75.6
78461;SHT31;67755;51.986;5.696;2024-02-15T08:49:25;15.3;75.6
78461;SHT31;67755;51.986;5.696;2024-02-15T08:51:58;15.3;75.6
78461;SHT31;67755;51.986;5.696;2024-02-15T08:54:29;15.3;75.6
78461;SHT31;67755;51.986;5.696;2024-02-15T08:56:59;15.4;75.5
78461;SHT31;67755;51.986;5.696;2024-02-15T08:59:28;15.4;75.7
78461;SHT31;67755;51.986;5.696;2024-02-15T09:01:57;15.4;75.7
78461;SHT31;67755;51.986;5.696;2024-02-15T09:04:26;15.4;75.7
78461;SHT31;67755;51.986;5.696;2024-02-15T09:06:56;15.4;75.6
78461;SHT31;67755;51.986;5.696;2024-02-15T09:09:24;15.4;75.6
78461;SHT31;67755;51.986;5.696;2024-02-15T09:11:53;15.4;75.6
78461;SHT31;67755;51.986;5.696;2024-02-15T09:14:21;15.4;75.6
78461;SHT31;67755;51.986;5.696;2024-02-15T09:16:50;15.4;75.4
78461;SHT31;67755;51.986;5.696;2024-02-15T09:19:19;15.4;75.4
78461;SHT31;67755;51.986;5.696;2024-02-15T09:21:47;15.4;75.3
78461;SHT31;67755;51.986;5.696;2024-02-15T09:24:15;15.5;75.2
78461;SHT31;67755;51.986;5.696;2024-02-15T09:26:44;15.5;75.2
78461;SHT31;67755;51.986;5.696;2024-02-15T09:29:12;15.5;75.3
78461;SHT31;67755;51.986;5.696;2024-02-15T09:31:41;15.5;75.3
78461;SHT31;67755;51.986;5.696;2024-02-15T09:34:09;15.5;75.5
78461;SHT31;67755;51.986;5.696;2024-02-15T09:36:40;15.5;75.3
78461;SHT31;67755;51.986;5.696;2024-02-15T09:39:10;15.5;75.4
78461;SHT31;67755;51.986;5.696;2024-02-15T09:41:41;15.5;75.5
78461;SHT31;67755;51.986;5.696;2024-02-15T09:44:11;15.5;75.6
78461;SHT31;67755;51.986;5.696;2024-02-15T09:46:44;15.5;75.4
78461;SHT31;67755;51.986;5.696;2024-02-15T09:49:16;15.5;75.4
78461;SHT31;67755;51.986;5.696;2024-02-15T09:51:49;15.5;75.4
78461;SHT31;67755;51.986;5.696;2024-02-15T09:54:18;15.5;75.4
78461;SHT31;67755;51.986;5.696;2024-02-15T09:56:50;15.5;75.6
78461;SHT31;67755;51.986;5.696;2024-02-15T09:59:20;15.5;75.6
78461;SHT31;67755;51.986;5.696;2024-02-15T10:01:50;15.5;75.5
78461;SHT31;67755;51.986;5.696;2024-02-15T10:04:20;15.5;75.5
78461;SHT31;67755;51.986;5.696;2024-02-15T10:06:48;15.5;75.3
78461;SHT31;67755;51.986;5.696;2024-02-15T10:09:25;15.5;75.3
78461;SHT31;67755;51.986;5.696;2024-02-15T10:11:56;15.5;75.2
78461;SHT31;67755;51.986;5.696;2024-02-15T10:14:28;15.5;74.9
78461;SHT31;67755;51.986;5.696;2024-02-15T10:16:57;15.5;75.2
78461;SHT31;67755;51.986;5.696;2024-02-15T10:19:30;15.5;75.1
78461;SHT31;67755;51.986;5.696;2024-02-15T10:22:09;15.5;74.7
78461;SHT31;67755;51.986;5.696;2024-02-15T10:24:39;15.5;74.9
78461;SHT31;67755;51.986;5.696;2024-02-15T10:27:07;15.5;74.9
78461;SHT31;67755;51.986;5.696;2024-02-15T10:29:37;15.5;74.7
78461;SHT31;67755;51.986;5.696;2024-02-15T10:32:06;15.5;74.9
78461;SHT31;67755;51.986;5.696;2024-02-15T10:34:46;15.5;75.2
78461;SHT31;67755;51.986;5.696;2024-02-15T10:37:15;15.5;75.3
78461;SHT31;67755;51.986;5.696;2024-02-15T10:39:45;15.5;75.3
78461;SHT31;67755;51.986;5.696;2024-02-15T10:42:16;15.5;75.3
78461;SHT31;67755;51.986;5.696;2024-02-15T10:44:46;15.5;75.5
78461;SHT31;67755;51.986;5.696;2024-02-15T10:47:17;15.5;75.5
78461;SHT31;67755;51.986;5.696;2024-02-15T10:49:48;15.5;75.4
78461;SHT31;67755;51.986;5.696;2024-02-15T10:52:20;15.6;75.5
78461;SHT31;67755;51.986;5.696;2024-02-15T10:54:52;15.6;75.6
78461;SHT31;67755;51.986;5.696;2024-02-15T10:57:26;15.6;75.8
78461;SHT31;67755;51.986;5.696;2024-02-15T10:59:57;15.6;75.7
78461;SHT31;67755;51.986;5.696;2024-02-15T11:02:29;15.6;75.6
78461;SHT31;67755;51.986;5.696;2024-02-15T11:05:02;15.6;75.7
78461;SHT31;67755;51.986;5.696;2024-02-15T11:07:36;15.7;75.4
78461;SHT31;67755;51.986;5.696;2024-02-15T11:10:06;15.7;75.7
78461;SHT31;67755;51.986;5.696;2024-02-15T11:12:39;15.7;75.8
78461;SHT31;67755;51.986;5.696;2024-02-15T11:15:11;15.7;75.5
78461;SHT31;67755;51.986;5.696;2024-02-15T11:17:49;15.7;75.3
78461;SHT31;67755;51.986;5.696;2024-02-15T11:20:48;15.7;75.2
78461;SHT31;67755;51.986;5.696;2024-02-15T11:23:26;15.8;75.4
78461;SHT31;67755;51.986;5.696;2024-02-15T11:25:57;15.8;75.5
78461;SHT31;67755;51.986;5.696;2024-02-15T11:28:40;15.8;75.6
78461;SHT31;67755;51.986;5.696;2024-02-15T11:31:10;15.8;75.6
78461;SHT31;67755;51.986;5.696;2024-02-15T11:33:43;15.8;75.9
78461;SHT31;67755;51.986;5.696;2024-02-15T11:36:12;15.8;75.5
78461;SHT31;67755;51.986;5.696;2024-02-15T11:38:43;15.8;75.4
78461;SHT31;67755;51.986;5.696;2024-02-15T11:41:19;15.9;75.7
78461;SHT31;67755;51.986;5.696;2024-02-15T11:43:53;15.9;76.0
78461;SHT31;67755;51.986;5.696;2024-02-15T11:46:25;15.9;75.8
78461;SHT31;67755;51.986;5.696;2024-02-15T11:48:57;15.9;75.9
78461;SHT31;67755;51.986;5.696;2024-02-15T11:51:27;15.9;75.8
78461;SHT31;67755;51.986;5.696;2024-02-15T11:54:06;15.9;76.0
78461;SHT31;67755;51.986;5.696;2024-02-15T11:56:54;16.0;75.9
78461;SHT31;67755;51.986;5.696;2024-02-15T11:59:43;16.0;76.1
78461;SHT31;67755;51.986;5.696;2024-02-15T12:02:26;16.0;75.9
78461;SHT31;67755;51.986;5.696;2024-02-15T12:05:13;16.0;76.0
78461;SHT31;67755;51.986;5.696;2024-02-15T12:09:40;16.1;76.3
78461;SHT31;67755;51.986;5.696;2024-02-15T12:12:24;16.1;76.5
78461;SHT31;67755;51.986;5.696;2024-02-15T12:16:21;16.2;76.3
78461;SHT31;67755;51.986;5.696;2024-02-15T12:19:06;16.2;76.8
78461;SHT31;67755;51.986;5.696;2024-02-15T12:21:38;16.2;76.2
78461;SHT31;67755;51.986;5.696;2024-02-15T12:24:08;16.3;75.7
78461;SHT31;67755;51.986;5.696;2024-02-15T12:26:38;16.3;74.9
78461;SHT31;67755;51.986;5.696;2024-02-15T12:29:08;16.3;75.2
78461;SHT31;67755;51.986;5.696;2024-02-15T12:31:38;16.4;75.4
78461;SHT31;67755;51.986;5.696;2024-02-15T12:34:07;16.4;74.9
78461;SHT31;67755;51.986;5.696;2024-02-15T12:36:37;16.4;75.3
78461;SHT31;67755;51.986;5.696;2024-02-15T12:39:06;16.4;76.3
78461;SHT31;67755;51.986;5.696;2024-02-15T12:41:40;16.5;75.7
78461;SHT31;67755;51.986;5.696;2024-02-15T12:44:09;16.5;75.5
78461;SHT31;67755;51.986;5.696;2024-02-15T12:46:40;16.5;75.6
78461;SHT31;67755;51.986;5.696;2024-02-15T12:49:29;16.6;75.2
78461;SHT31;67755;51.986;5.696;2024-02-15T12:52:35;16.6;75.5
78461;SHT31;67755;51.986;5.696;2024-02-15T12:55:09;16.7;74.8
78461;SHT31;67755;51.986;5.696;2024-02-15T12:57:38;16.7;75.3
78461;SHT31;67755;51.986;5.696;2024-02-15T13:00:12;16.7;74.4
78461;SHT31;67755;51.986;5.696;2024-02-15T13:02:44;16.7;74.3
78461;SHT31;67755;51.986;5.696;2024-02-15T13:05:15;16.8;73.4
78461;SHT31;67755;51.986;5.696;2024-02-15T13:07:45;16.8;73.0
78461;SHT31;67755;51.986;5.696;2024-02-15T13:10:14;16.8;73.5
78461;SHT31;67755;51.986;5.696;2024-02-15T13:12:43;16.8;73.9
78461;SHT31;67755;51.986;5.696;2024-02-15T13:15:14;16.8;74.7
78461;SHT31;67755;51.986;5.696;2024-02-15T13:17:45;16.9;74.5
78461;SHT31;67755;51.986;5.696;2024-02-15T13:20:15;16.9;73.4
78461;SHT31;67755;51.986;5.696;2024-02-15T13:22:47;16.9;73.6
78461;SHT31;67755;51.986;5.696;2024-02-15T13:25:16;16.9;74.4
78461;SHT31;67755;51.986;5.696;2024-02-15T13:27:47;16.9;73.7
78461;SHT31;67755;51.986;5.696;2024-02-15T13:30:17;17.0;74.1
78461;SHT31;67755;51.986;5.696;2024-02-15T13:32:49;17.0;73.2
78461;SHT31;67755;51.986;5.696;2024-02-15T13:35:18;17.0;73.9
78461;SHT31;67755;51.986;5.696;2024-02-15T13:37:51;17.0;73.5
78461;SHT31;67755;51.986;5.696;2024-02-15T13:40:21;17.0;74.1
78461;SHT31;67755;51.986;5.696;2024-02-15T13:42:53;17.1;74.1
78461;SHT31;67755;51.986;5.696;2024-02-15T13:45:28;17.1;73.8
78461;SHT31;67755;51.986;5.696;2024-02-15T13:48:00;17.1;74.0
78461;SHT31;67755;51.986;5.696;2024-02-15T13:50:31;17.1;73.6
78461;SHT31;67755;51.986;5.696;2024-02-15T13:53:00;17.2;73.8
78461;SHT31;67755;51.986;5.696;2024-02-15T13:55:31;17.2;73.7
78461;SHT31;67755;51.986;5.696;2024-02-15T13:58:00;17.2;74.0
78461;SHT31;67755;51.986;5.696;2024-02-15T14:00:29;17.2;74.0
78461;SHT31;67755;51.986;5.696;2024-02-15T14:03:01;17.2;72.3
78461;SHT31;67755;51.986;5.696;2024-02-15T14:05:32;17.2;72.3
78461;SHT31;67755;51.986;5.696;2024-02-15T14:08:03;17.2;73.1
78461;SHT31;67755;51.986;5.696;2024-02-15T14:10:37;17.2;72.5
78461;SHT31;67755;51.986;5.696;2024-02-15T14:13:07;17.2;73.6
78461;SHT31;67755;51.986;5.696;2024-02-15T14:15:40;17.3;73.2
78461;SHT31;67755;51.986;5.696;2024-02-15T14:18:11;17.3;72.8
78461;SHT31;67755;51.986;5.696;2024-02-15T14:20:40;17.3;73.4
78461;SHT31;67755;51.986;5.696;2024-02-15T14:23:12;17.3;73.7
78461;SHT31;67755;51.986;5.696;2024-02-15T14:25:42;17.3;72.6
78461;SHT31;67755;51.986;5.696;2024-02-15T14:28:11;17.3;72.1
78461;SHT31;67755;51.986;5.696;2024-02-15T14:30:41;17.3;72.3
78461;SHT31;67755;51.986;5.696;2024-02-15T14:33:26;17.3;72.8
78461;SHT31;67755;51.986;5.696;2024-02-15T14:35:54;17.3;72.7
78461;SHT31;67755;51.986;5.696;2024-02-15T14:38:24;17.3;72.6
78461;SHT31;67755;51.986;5.696;2024-02-15T14:40:53;17.3;73.0
78461;SHT31;67755;51.986;5.696;2024-02-15T14:43:23;17.3;73.1
78461;SHT31;67755;51.986;5.696;2024-02-15T14:45:52;17.3;73.4
78461;SHT31;67755;51.986;5.696;2024-02-15T14:48:22;17.3;73.2
78461;SHT31;67755;51.986;5.696;2024-02-15T14:50:52;17.3;73.2
78461;SHT31;67755;51.986;5.696;2024-02-15T14:53:22;17.3;73.3
78461;SHT31;67755;51.986;5.696;2024-02-15T14:55:50;17.3;73.4
78461;SHT31;67755;51.986;5.696;2024-02-15T14:58:19;17.3;73.6
78461;SHT31;67755;51.986;5.696;2024-02-15T15:00:48;17.3;73.8
78461;SHT31;67755;51.986;5.696;2024-02-15T15:03:18;17.3;73.6
78461;SHT31;67755;51.986;5.696;2024-02-15T15:05:48;17.3;73.4
78461;SHT31;67755;51.986;5.696;2024-02-15T15:08:33;17.3;73.4
78461;SHT31;67755;51.986;5.696;2024-02-15T15:11:18;17.3;73.3
78461;SHT31;67755;51.986;5.696;2024-02-15T15:14:03;17.3;73.2
78461;SHT31;67755;51.986;5.696;2024-02-15T15:16:33;17.3;73.3
78461;SHT31;67755;51.986;5.696;2024-02-15T15:19:02;17.3;73.5
78461;SHT31;67755;51.986;5.696;2024-02-15T15:21:30;17.3;73.6
78461;SHT31;67755;51.986;5.696;2024-02-15T15:23:59;17.3;73.6
78461;SHT31;67755;51.986;5.696;2024-02-15T15:26:27;17.3;73.5
78461;SHT31;67755;51.986;5.696;2024-02-15T15:28:57;17.3;73.3
78461;SHT31;67755;51.986;5.696;2024-02-15T15:31:26;17.3;73.1
78461;SHT31;67755;51.986;5.696;2024-02-15T15:33:55;17.3;73.1
78461;SHT31;67755;51.986;5.696;2024-02-15T15:36:24;17.3;73.0
78461;SHT31;67755;51.986;5.696;2024-02-15T15:38:52;17.3;73.0
78461;SHT31;67755;51.986;5.696;2024-02-15T15:41:21;17.3;72.9
78461;SHT31;67755;51.986;5.696;2024-02-15T15:43:50;17.3;72.9
78461;SHT31;67755;51.986;5.696;2024-02-15T15:46:20;17.3;72.9
78461;SHT31;67755;51.986;5.696;2024-02-15T15:48:49;17.3;72.8
78461;SHT31;67755;51.986;5.696;2024-02-15T15:51:19;17.3;73.0
78461;SHT31;67755;51.986;5.696;2024-02-15T15:53:48;17.2;72.9
78461;SHT31;67755;51.986;5.696;2024-02-15T15:56:17;17.2;72.3
78461;SHT31;67755;51.986;5.696;2024-02-15T15:58:46;17.2;72.1
78461;SHT31;67755;51.986;5.696;2024-02-15T16:01:15;17.2;72.4
78461;SHT31;67755;51.986;5.696;2024-02-15T16:03:47;17.2;72.5
78461;SHT31;67755;51.986;5.696;2024-02-15T16:06:16;17.2;72.3
78461;SHT31;67755;51.986;5.696;2024-02-15T16:08:45;17.2;72.3
78461;SHT31;67755;51.986;5.696;2024-02-15T16:11:15;17.1;72.2
78461;SHT31;67755;51.986;5.696;2024-02-15T16:13:44;17.1;72.1
78461;SHT31;67755;51.986;5.696;2024-02-15T16:16:14;17.1;72.2
78461;SHT31;67755;51.986;5.696;2024-02-15T16:18:43;17.1;72.1
78461;SHT31;67755;51.986;5.696;2024-02-15T16:21:11;17.1;71.7
78461;SHT31;67755;51.986;5.696;2024-02-15T16:23:40;17.0;71.4
78461;SHT31;67755;51.986;5.696;2024-02-15T16:26:08;17.0;71.3
78461;SHT31;67755;51.986;5.696;2024-02-15T16:28:37;17.0;71.5